createdAt,value
2018-06-10T00:02:19.699Z,7.30
2018-06-10T00:04:49.249Z,9.03
2018-06-10T00:07:18.737Z,10.17
2018-06-10T00:09:48.368Z,7.60
2018-06-10T00:12:17.934Z,7.07
2018-06-10T00:14:47.521Z,7.77
2018-06-10T00:17:17.100Z,6.80
2018-06-10T00:19:46.640Z,7.90
2018-06-10T00:22:15.947Z,6.90
2018-06-10T00:24:45.268Z,8.37
2018-06-10T00:27:14.563Z,7.67
2018-06-10T00:29:43.817Z,7.20
2018-06-10T00:32:13.136Z,8.03
2018-06-10T00:34:42.553Z,8.23
2018-06-10T00:37:12.080Z,10.83
2018-06-10T00:39:41.519Z,7.40
2018-06-10T00:42:11.072Z,6.60
2018-06-10T00:44:40.601Z,8.93
2018-06-10T00:47:10.212Z,9.93
2018-06-10T00:49:39.656Z,9.43
2018-06-10T00:52:09.232Z,7.10
2018-06-10T00:54:38.350Z,9.77
2018-06-10T00:57:07.761Z,7.53
2018-06-10T00:59:37.019Z,6.43
2018-06-10T01:02:06.336Z,10.40
2018-06-10T01:04:35.308Z,10.37
2018-06-10T01:07:04.578Z,10.13
2018-06-10T01:09:34.092Z,6.53
2018-06-10T01:12:03.444Z,9.33
2018-06-10T01:14:32.436Z,8.90
2018-06-10T01:17:02.514Z,8.07
2018-06-10T01:19:31.811Z,9.87
2018-06-10T01:22:01.227Z,8.50
2018-06-10T01:24:30.502Z,9.87
2018-06-10T01:26:59.810Z,7.50
2018-06-10T01:29:29.057Z,7.50
2018-06-10T01:31:58.022Z,7.33
2018-06-10T01:34:27.143Z,7.83
2018-06-10T01:36:56.103Z,9.07
2018-06-10T01:39:25.252Z,13.00
2018-06-10T01:41:54.558Z,11.43
2018-06-10T01:44:23.849Z,7.97
2018-06-10T01:46:53.130Z,8.00
2018-06-10T01:49:22.432Z,8.93
2018-06-10T01:51:51.354Z,8.80
2018-06-10T01:54:20.552Z,6.80
2018-06-10T01:56:49.840Z,6.60
2018-06-10T01:59:19.151Z,10.07
2018-06-10T02:01:48.420Z,8.33
2018-06-10T02:04:17.719Z,7.67
2018-06-10T02:06:46.990Z,10.27
2018-06-10T02:09:16.323Z,12.83
2018-06-10T02:11:45.623Z,8.93
2018-06-10T02:14:14.614Z,7.07
2018-06-10T02:16:43.780Z,10.57
2018-06-10T02:19:13.087Z,7.23
2018-06-10T02:21:42.357Z,8.27
2018-06-10T02:24:11.628Z,6.70
2018-06-10T02:26:40.943Z,8.93
2018-06-10T02:29:10.257Z,7.47
2018-06-10T02:31:39.500Z,7.43
2018-06-10T02:34:08.789Z,8.53
2018-06-10T02:36:38.116Z,9.93
2018-06-10T02:39:08.061Z,6.20
2018-06-10T02:41:37.316Z,8.97
2018-06-10T02:44:06.616Z,6.33
2018-06-10T02:46:35.867Z,9.90
2018-06-10T02:49:05.208Z,7.70
2018-06-10T02:51:34.464Z,5.87
2018-06-10T02:54:03.821Z,10.57
2018-06-10T02:56:33.094Z,6.60
2018-06-10T02:59:02.399Z,6.13
2018-06-10T03:01:31.680Z,8.23
2018-06-10T03:04:01.269Z,6.50
2018-06-10T03:06:30.535Z,9.00
2018-06-10T03:08:59.817Z,8.10
2018-06-10T03:11:29.075Z,8.83
2018-06-10T03:13:58.430Z,12.47
2018-06-10T03:16:27.708Z,12.50
2018-06-10T03:18:57.020Z,12.23
2018-06-10T03:21:26.327Z,10.30
2018-06-10T03:23:55.589Z,10.40
2018-06-10T03:26:25.000Z,11.87
2018-06-10T03:28:54.579Z,16.07
2018-06-10T03:31:24.152Z,12.70
2018-06-10T03:33:53.257Z,12.40
2018-06-10T03:36:22.671Z,11.07
2018-06-10T03:38:52.172Z,11.53
2018-06-10T03:41:21.694Z,13.63
2018-06-10T03:43:51.199Z,13.57
2018-06-10T03:46:20.818Z,14.00
2018-06-10T03:48:50.466Z,11.20
2018-06-10T03:51:19.598Z,11.53
2018-06-10T03:53:48.728Z,19.13
2018-06-10T03:56:18.072Z,13.07
2018-06-10T03:58:47.350Z,16.70
2018-06-10T04:01:16.650Z,20.23
2018-06-10T04:03:46.824Z,24.00
2018-06-10T04:06:16.424Z,14.53
2018-06-10T04:08:45.909Z,28.47
2018-06-10T04:11:15.420Z,11.30
2018-06-10T04:13:44.831Z,20.47
2018-06-10T04:16:13.960Z,26.60
2018-06-10T04:18:43.289Z,18.27
2018-06-10T04:21:12.768Z,23.37
2018-06-10T04:23:42.209Z,14.20
2018-06-10T04:26:11.647Z,8.70
2018-06-10T04:28:41.237Z,19.77
2018-06-10T04:31:10.432Z,6.83
2018-06-10T04:33:39.855Z,8.17
2018-06-10T04:36:09.375Z,6.33
2018-06-10T04:38:38.911Z,6.07
2018-06-10T04:41:08.350Z,6.10
2018-06-10T04:43:37.775Z,5.43
2018-06-10T04:46:07.179Z,6.47
2018-06-10T04:48:36.484Z,7.30
2018-06-10T04:51:05.740Z,5.40
2018-06-10T04:53:35.029Z,4.50
2018-06-10T04:56:04.342Z,5.63
2018-06-10T04:58:33.644Z,4.97
2018-06-10T05:01:02.899Z,4.83
2018-06-10T05:03:32.227Z,4.23
2018-06-10T05:06:01.466Z,5.43
2018-06-10T05:08:30.763Z,4.33
2018-06-10T05:11:00.008Z,4.57
2018-06-10T05:13:29.327Z,5.10
2018-06-10T05:15:58.592Z,4.70
2018-06-10T05:18:27.900Z,5.07
2018-06-10T05:20:57.157Z,6.00
2018-06-10T05:23:26.488Z,5.33
2018-06-10T05:25:55.769Z,5.40
2018-06-10T05:28:25.055Z,4.67
2018-06-10T05:30:54.336Z,5.93
2018-06-10T05:33:23.676Z,6.87
2018-06-10T05:35:52.618Z,5.83
2018-06-10T05:38:21.778Z,5.53
2018-06-10T05:40:51.047Z,5.30
2018-06-10T05:43:20.326Z,6.57
2018-06-10T05:45:49.616Z,6.60
2018-06-10T05:48:18.935Z,5.43
2018-06-10T05:50:48.209Z,7.10
2018-06-10T05:53:17.498Z,7.00
2018-06-10T05:55:46.752Z,7.50
2018-06-10T05:58:22.715Z,7.77
2018-06-10T06:00:51.987Z,8.43
2018-06-10T06:03:21.268Z,8.17
2018-06-10T06:05:50.556Z,7.33
2018-06-10T06:08:19.917Z,8.23
2018-06-10T06:10:49.493Z,9.00
2018-06-10T06:13:19.006Z,9.53
2018-06-10T06:15:48.467Z,8.03
2018-06-10T06:18:17.981Z,7.73
2018-06-10T06:20:47.192Z,7.97
2018-06-10T06:23:16.498Z,7.53
2018-06-10T06:25:45.748Z,8.73
2018-06-10T06:28:15.031Z,10.13
2018-06-10T06:30:44.336Z,9.10
2018-06-10T06:33:13.642Z,8.50
2018-06-10T06:35:42.947Z,8.80
2018-06-10T06:38:12.187Z,8.07
2018-06-10T06:40:41.447Z,7.93
2018-06-10T06:43:10.693Z,9.13
2018-06-10T06:45:39.975Z,8.50
2018-06-10T06:48:09.324Z,7.63
2018-06-10T06:50:38.908Z,9.30
2018-06-10T06:53:08.451Z,7.77
2018-06-10T06:55:37.728Z,9.07
2018-06-10T06:58:07.053Z,7.70
2018-06-10T07:00:36.357Z,8.50
2018-06-10T07:03:05.321Z,7.93
2018-06-10T07:05:34.521Z,8.00
2018-06-10T07:08:03.759Z,7.87
2018-06-10T07:10:33.037Z,9.73
2018-06-10T07:13:02.392Z,6.50
2018-06-10T07:15:31.708Z,7.50
2018-06-10T07:18:00.999Z,6.90
2018-06-10T07:20:30.315Z,7.30
2018-06-10T07:22:59.619Z,8.33
2018-06-10T07:25:28.899Z,7.93
2018-06-10T07:27:58.220Z,8.47
2018-06-10T07:30:27.476Z,6.77
2018-06-10T07:32:56.782Z,7.90
2018-06-10T07:35:26.071Z,6.60
2018-06-10T07:37:55.690Z,8.13
2018-06-10T07:40:25.089Z,6.20
2018-06-10T07:42:54.712Z,7.87
2018-06-10T07:45:24.191Z,5.67
2018-06-10T07:47:53.463Z,6.70
2018-06-10T07:50:22.718Z,5.10
2018-06-10T07:52:52.060Z,6.73
2018-06-10T07:55:21.330Z,6.27
2018-06-10T07:57:50.629Z,5.90
2018-06-10T08:00:19.914Z,6.40
2018-06-10T08:02:49.235Z,4.83
2018-06-10T08:05:18.576Z,4.50
2018-06-10T08:07:47.859Z,4.43
2018-06-10T08:10:17.145Z,4.97
2018-06-10T08:12:46.488Z,4.47
2018-06-10T08:15:15.782Z,8.07
2018-06-10T08:17:45.089Z,4.53
2018-06-10T08:20:14.022Z,4.10
2018-06-10T08:22:43.192Z,6.33
2018-06-10T08:25:12.456Z,4.13
2018-06-10T08:27:41.746Z,4.47
2018-06-10T08:30:11.010Z,3.90
2018-06-10T08:32:40.292Z,5.17
2018-06-10T08:35:09.538Z,4.03
2018-06-10T08:37:38.808Z,4.17
2018-06-10T08:40:08.073Z,4.93
2018-06-10T08:42:37.360Z,6.03
2018-06-10T08:45:06.616Z,4.30
2018-06-10T08:47:35.879Z,4.70
2018-06-10T08:50:04.876Z,4.13
2018-06-10T08:52:33.993Z,4.87
2018-06-10T08:55:03.312Z,4.80
2018-06-10T08:57:32.815Z,3.80
2018-06-10T09:00:02.161Z,4.87
2018-06-10T09:02:31.107Z,4.90
2018-06-10T09:05:00.315Z,4.57
2018-06-10T09:07:29.570Z,4.17
2018-06-10T09:09:58.515Z,3.90
2018-06-10T09:12:27.709Z,4.80
2018-06-10T09:14:57.011Z,4.43
2018-06-10T09:17:26.563Z,4.13
2018-06-10T09:19:55.719Z,3.97
2018-06-10T09:22:25.207Z,5.03
2018-06-10T09:24:54.310Z,5.30
2018-06-10T09:27:23.667Z,4.30
2018-06-10T09:29:53.237Z,4.17
2018-06-10T09:32:22.663Z,3.43
2018-06-10T09:34:52.204Z,4.47
2018-06-10T09:37:21.695Z,4.30
2018-06-10T09:39:51.283Z,7.77
2018-06-10T09:42:20.798Z,4.47
2018-06-10T09:44:50.018Z,4.63
2018-06-10T09:47:19.393Z,5.60
2018-06-10T09:49:48.506Z,5.17
2018-06-10T09:52:17.650Z,4.30
2018-06-10T09:54:46.957Z,4.23
2018-06-10T09:57:16.232Z,4.67
2018-06-10T09:59:45.563Z,4.20
2018-06-10T10:02:14.845Z,4.73
2018-06-10T10:04:44.205Z,4.37
2018-06-10T10:07:13.471Z,4.00
2018-06-10T10:09:42.767Z,3.93
2018-06-10T10:12:12.032Z,3.90
2018-06-10T10:14:41.378Z,4.53
2018-06-10T10:17:10.605Z,4.20
2018-06-10T10:19:39.916Z,3.93
2018-06-10T10:22:09.159Z,6.77
2018-06-10T10:24:38.524Z,4.70
2018-06-10T10:27:08.111Z,4.60
2018-06-10T10:29:37.640Z,4.53
2018-06-10T10:32:07.176Z,4.77
2018-06-10T10:34:36.708Z,5.17
2018-06-10T10:37:06.317Z,4.87
2018-06-10T10:39:35.828Z,6.03
2018-06-10T10:42:05.308Z,5.30
2018-06-10T10:44:34.774Z,6.77
2018-06-10T10:47:04.477Z,5.40
2018-06-10T10:49:33.934Z,4.90
2018-06-10T10:52:03.484Z,4.87
2018-06-10T10:54:32.974Z,4.80
2018-06-10T10:57:02.000Z,5.23
2018-06-10T10:59:31.408Z,6.03
2018-06-10T11:02:00.921Z,7.70
2018-06-10T11:04:30.284Z,5.43
2018-06-10T11:06:59.812Z,6.27
2018-06-10T11:09:29.356Z,5.10
2018-06-10T11:11:58.819Z,5.73
2018-06-10T11:14:28.340Z,6.77
2018-06-10T11:16:57.893Z,5.27
2018-06-10T11:19:27.372Z,4.97
2018-06-10T11:21:56.634Z,4.80
2018-06-10T11:24:25.872Z,4.83
2018-06-10T11:26:55.204Z,4.93
2018-06-10T11:29:24.159Z,5.57
2018-06-10T11:31:53.335Z,4.97
2018-06-10T11:34:22.659Z,4.83
2018-06-10T11:36:51.887Z,6.20
2018-06-10T11:39:21.165Z,5.27
2018-06-10T11:41:50.431Z,5.37
2018-06-10T11:44:19.708Z,5.07
2018-06-10T11:46:48.999Z,5.10
2018-06-10T11:49:17.931Z,5.43
2018-06-10T11:51:47.091Z,8.80
2018-06-10T11:54:16.338Z,5.57
2018-06-10T11:56:45.594Z,6.17
2018-06-10T11:59:14.820Z,6.10
2018-06-10T12:01:44.109Z,5.23
2018-06-10T12:04:13.408Z,4.80
2018-06-10T12:06:42.648Z,5.60
2018-06-10T12:09:11.871Z,6.47
2018-06-10T12:11:41.187Z,8.80
2018-06-10T12:14:10.484Z,4.80
2018-06-10T12:16:39.827Z,5.10
2018-06-10T12:19:09.067Z,5.10
2018-06-10T12:21:38.364Z,4.87
2018-06-10T12:24:07.627Z,4.77
2018-06-10T12:26:36.896Z,5.23
2018-06-10T12:29:06.167Z,5.37
2018-06-10T12:31:35.403Z,5.93
2018-06-10T12:34:04.756Z,5.63
2018-06-10T12:36:34.009Z,5.20
2018-06-10T12:39:04.193Z,6.80
2018-06-10T12:41:33.482Z,5.70
2018-06-10T12:44:02.802Z,5.87
2018-06-10T12:46:32.091Z,6.03
2018-06-10T12:49:01.383Z,5.67
2018-06-10T12:51:30.673Z,5.47
2018-06-10T12:53:59.952Z,6.10
2018-06-10T12:56:29.248Z,6.20
2018-06-10T12:58:58.535Z,7.30
2018-06-10T13:01:27.783Z,5.43
2018-06-10T13:03:57.066Z,5.43
2018-06-10T13:06:26.327Z,5.10
2018-06-10T13:08:55.632Z,6.33
2018-06-10T13:11:24.895Z,6.27
2018-06-10T13:13:54.191Z,4.80
2018-06-10T13:16:23.451Z,5.07
2018-06-10T13:18:52.751Z,5.27
2018-06-10T13:21:21.960Z,5.40
2018-06-10T13:23:51.227Z,5.03
2018-06-10T13:26:20.473Z,5.57
2018-06-10T13:28:49.812Z,7.23
2018-06-10T13:31:19.050Z,6.67
2018-06-10T13:33:48.334Z,6.27
2018-06-10T13:36:17.561Z,5.70
2018-06-10T13:38:46.855Z,5.87
2018-06-10T13:41:16.111Z,5.73
2018-06-10T13:43:45.432Z,5.77
2018-06-10T13:46:14.701Z,5.90
2018-06-10T13:48:44.004Z,5.90
2018-06-10T13:51:13.047Z,6.20
2018-06-10T13:53:42.392Z,6.63
2018-06-10T13:56:11.331Z,5.43
2018-06-10T13:58:40.481Z,5.50
2018-06-10T14:01:09.732Z,6.03
2018-06-10T14:03:39.013Z,5.47
2018-06-10T14:06:08.347Z,5.33
2018-06-10T14:08:37.224Z,6.47
2018-06-10T14:11:06.380Z,5.67
2018-06-10T14:13:41.891Z,7.63
2018-06-10T14:16:11.027Z,5.40
2018-06-10T14:18:39.962Z,6.43
2018-06-10T14:21:09.116Z,7.97
2018-06-10T14:23:38.027Z,6.50
2018-06-10T14:26:07.221Z,6.30
2018-06-10T14:28:36.474Z,6.27
2018-06-10T14:31:05.815Z,9.60
2018-06-10T14:33:35.095Z,6.07
2018-06-10T14:36:04.376Z,6.20
2018-06-10T14:38:33.611Z,7.57
2018-06-10T14:41:02.868Z,6.00
2018-06-10T14:43:32.133Z,6.53
2018-06-10T14:46:01.389Z,5.97
2018-06-10T14:48:30.667Z,5.73
2018-06-10T14:50:59.948Z,6.03
2018-06-10T14:53:29.199Z,5.93
2018-06-10T14:55:58.202Z,6.70
2018-06-10T14:58:27.376Z,6.50
2018-06-10T15:00:56.676Z,5.80
2018-06-10T15:03:25.959Z,7.10
2018-06-10T15:05:55.378Z,6.93
2018-06-10T15:08:24.872Z,6.23
2018-06-10T15:10:54.384Z,6.60
2018-06-10T15:13:23.892Z,6.67
2018-06-10T15:15:53.487Z,6.83
2018-06-10T15:18:22.995Z,8.00
2018-06-10T15:20:52.508Z,7.47
2018-06-10T15:23:22.009Z,6.90
2018-06-10T15:25:51.482Z,7.17
2018-06-10T15:28:21.051Z,6.87
2018-06-10T15:30:50.329Z,7.63
2018-06-10T15:33:19.612Z,8.53
2018-06-10T15:35:49.028Z,7.17
2018-06-10T15:38:18.463Z,7.13
2018-06-10T15:40:47.885Z,7.63
2018-06-10T15:43:17.356Z,7.93
2018-06-10T15:45:46.868Z,7.30
2018-06-10T15:48:16.032Z,6.80
2018-06-10T15:50:45.417Z,8.47
2018-06-10T15:53:14.740Z,8.17
2018-06-10T15:55:44.183Z,5.80
2018-06-10T15:58:13.135Z,6.63
2018-06-10T16:00:42.284Z,8.53
2018-06-10T16:03:11.582Z,7.17
2018-06-10T16:05:40.842Z,5.60
2018-06-10T16:08:10.163Z,5.67
2018-06-10T16:10:39.086Z,5.90
2018-06-10T16:13:07.958Z,5.73
2018-06-10T16:15:37.092Z,5.13
2018-06-10T16:18:06.401Z,4.13
2018-06-10T16:20:35.660Z,5.07
2018-06-10T16:23:04.940Z,3.43
2018-06-10T16:25:33.866Z,3.83
2018-06-10T16:28:03.023Z,6.83
2018-06-10T16:30:32.276Z,5.73
2018-06-10T16:33:01.544Z,5.47
2018-06-10T16:35:30.872Z,4.50
2018-06-10T16:38:00.392Z,4.53
2018-06-10T16:40:29.858Z,6.03
2018-06-10T16:42:59.127Z,4.87
2018-06-10T16:45:28.406Z,4.43
2018-06-10T16:47:57.692Z,4.43
2018-06-10T16:50:26.935Z,5.53
2018-06-10T16:52:55.881Z,5.37
2018-06-10T16:55:25.008Z,5.03
2018-06-10T16:57:54.288Z,3.43
2018-06-10T17:00:23.519Z,3.67
2018-06-10T17:02:52.799Z,4.30
2018-06-10T17:05:22.062Z,3.20
2018-06-10T17:07:51.323Z,3.80
2018-06-10T17:10:20.576Z,3.93
2018-06-10T17:12:49.864Z,3.30
2018-06-10T17:15:19.117Z,3.67
2018-06-10T17:17:48.434Z,4.30
2018-06-10T17:20:17.739Z,4.40
2018-06-10T17:22:46.961Z,5.47
2018-06-10T17:25:16.248Z,3.80
2018-06-10T17:27:45.500Z,3.57
2018-06-10T17:30:14.773Z,4.17
2018-06-10T17:32:44.045Z,6.17
2018-06-10T17:35:13.365Z,3.57
2018-06-10T17:37:42.608Z,3.90
2018-06-10T17:40:11.919Z,3.90
2018-06-10T17:42:41.147Z,4.17
2018-06-10T17:45:10.435Z,4.30
2018-06-10T17:47:39.711Z,5.87
2018-06-10T17:50:09.008Z,5.60
2018-06-10T17:52:38.254Z,7.63
2018-06-10T17:55:07.550Z,6.43
2018-06-10T17:57:36.811Z,5.97
2018-06-10T18:00:06.152Z,4.27
2018-06-10T18:02:35.428Z,4.53
2018-06-10T18:05:04.399Z,4.97
2018-06-10T18:07:33.547Z,4.47
2018-06-10T18:10:02.824Z,3.70
2018-06-10T18:12:32.127Z,4.10
2018-06-10T18:15:01.408Z,5.50
2018-06-10T18:17:30.669Z,6.07
2018-06-10T18:19:59.984Z,3.90
2018-06-10T18:22:29.288Z,4.90
2018-06-10T18:24:58.577Z,6.33
2018-06-10T18:27:27.857Z,5.57
2018-06-10T18:29:57.172Z,5.07
2018-06-10T18:32:26.464Z,6.70
2018-06-10T18:34:55.787Z,5.60
2018-06-10T18:37:25.076Z,3.90
2018-06-10T18:39:54.417Z,4.40
2018-06-10T18:42:23.693Z,6.50
2018-06-10T18:44:52.977Z,4.30
2018-06-10T18:47:22.267Z,5.50
2018-06-10T18:49:51.596Z,3.90
2018-06-10T18:52:21.072Z,6.23
2018-06-10T18:54:50.559Z,4.20
2018-06-10T18:57:20.106Z,7.23
2018-06-10T18:59:49.621Z,4.57
2018-06-10T19:02:19.219Z,4.70
2018-06-10T19:04:48.856Z,4.87
2018-06-10T19:07:18.425Z,3.83
2018-06-10T19:09:47.908Z,4.73
2018-06-10T19:12:17.441Z,6.03
2018-06-10T19:14:46.953Z,7.50
2018-06-10T19:17:16.424Z,4.23
2018-06-10T19:19:45.682Z,6.03
2018-06-10T19:22:14.952Z,5.87
2018-06-10T19:24:44.192Z,4.67
2018-06-10T19:27:13.456Z,8.13
2018-06-10T19:29:42.700Z,5.50
2018-06-10T19:32:11.967Z,6.33
2018-06-10T19:34:41.222Z,6.37
2018-06-10T19:37:10.520Z,4.73
2018-06-10T19:39:39.788Z,4.97
2018-06-10T19:42:09.076Z,5.97
2018-06-10T19:44:38.344Z,4.80
2018-06-10T19:47:07.615Z,4.80
2018-06-10T19:49:36.856Z,4.90
2018-06-10T19:52:06.135Z,7.37
2018-06-10T19:54:35.391Z,4.50
2018-06-10T19:57:04.711Z,8.60
2018-06-10T19:59:33.964Z,4.77
2018-06-10T20:02:03.290Z,5.43
2018-06-10T20:04:32.559Z,6.30
2018-06-10T20:07:04.652Z,5.17
2018-06-10T20:09:33.898Z,6.80
2018-06-10T20:12:03.453Z,8.50
2018-06-10T20:14:32.971Z,7.43
2018-06-10T20:17:02.401Z,7.17
2018-06-10T20:19:31.941Z,7.17
2018-06-10T20:22:01.401Z,7.20
2018-06-10T20:24:30.902Z,7.30
2018-06-10T20:27:00.372Z,6.20
2018-06-10T20:29:29.946Z,6.90
2018-06-10T20:31:59.551Z,7.80
2018-06-10T20:34:29.084Z,6.67
2018-06-10T20:36:58.585Z,7.60
2018-06-10T20:39:28.027Z,6.30
2018-06-10T20:41:57.591Z,6.23
2018-06-10T20:44:27.040Z,32.17
2018-06-10T20:46:56.585Z,8.13
2018-06-10T20:49:26.036Z,8.13
2018-06-10T20:51:55.506Z,8.83
2018-06-10T20:54:25.099Z,7.30
2018-06-10T20:56:54.523Z,7.63
2018-06-10T20:59:23.800Z,7.17
2018-06-10T21:01:53.064Z,8.33
2018-06-10T21:04:22.384Z,7.93
2018-06-10T21:06:51.632Z,7.30
2018-06-10T21:09:20.881Z,9.67
2018-06-10T21:11:50.142Z,9.80
2018-06-10T21:14:25.884Z,9.07
2018-06-10T21:16:55.432Z,8.50
2018-06-10T21:19:24.979Z,9.50
2018-06-10T21:21:54.435Z,9.53
2018-06-10T21:24:23.968Z,9.63
2018-06-10T21:26:53.381Z,8.43
2018-06-10T21:29:22.840Z,8.43
2018-06-10T21:31:52.327Z,8.47
2018-06-10T21:34:21.387Z,8.33
2018-06-10T21:36:50.585Z,7.27
2018-06-10T21:39:20.127Z,9.53
2018-06-10T21:41:49.617Z,10.93
2018-06-10T21:44:19.051Z,7.23
2018-06-10T21:46:48.537Z,9.80
2018-06-10T21:49:18.082Z,9.27
2018-06-10T21:51:47.568Z,8.07
2018-06-10T21:54:17.165Z,15.60
2018-06-10T21:56:46.286Z,8.43
2018-06-10T21:59:15.680Z,9.03
2018-06-10T22:01:45.180Z,8.60
2018-06-10T22:04:14.696Z,7.90
2018-06-10T22:06:44.196Z,7.17
2018-06-10T22:09:13.718Z,8.10
2018-06-10T22:11:43.211Z,6.93
2018-06-10T22:14:12.689Z,7.97
2018-06-10T22:16:42.203Z,9.80
2018-06-10T22:19:11.821Z,11.33
2018-06-10T22:21:41.252Z,8.10
2018-06-10T22:24:10.760Z,8.77
2018-06-10T22:26:40.257Z,6.50
2018-06-10T22:29:09.883Z,7.17
2018-06-10T22:31:39.347Z,7.70
2018-06-10T22:34:08.889Z,7.10
2018-06-10T22:36:38.518Z,10.63
2018-06-10T22:39:08.420Z,7.53
2018-06-10T22:41:37.888Z,8.13
2018-06-10T22:44:07.444Z,7.60
2018-06-10T22:46:36.980Z,8.67
2018-06-10T22:49:06.427Z,7.97
2018-06-10T22:51:35.900Z,7.63
2018-06-10T22:54:16.824Z,15.73
2018-06-10T22:56:46.264Z,9.33
2018-06-10T22:59:15.760Z,8.83
2018-06-10T23:01:45.199Z,9.43
2018-06-10T23:04:14.718Z,9.13
2018-06-10T23:06:44.263Z,8.70
2018-06-10T23:09:13.697Z,9.13
2018-06-10T23:11:43.164Z,9.80
2018-06-10T23:14:12.657Z,9.87
2018-06-10T23:16:42.173Z,9.53
2018-06-10T23:19:11.480Z,9.47
2018-06-10T23:21:40.907Z,9.20
2018-06-10T23:24:10.389Z,8.13
2018-06-10T23:26:39.906Z,8.07
2018-06-10T23:29:09.419Z,8.07
2018-06-10T23:31:38.938Z,9.67
2018-06-10T23:34:08.397Z,8.33
2018-06-10T23:36:37.807Z,9.57
2018-06-10T23:39:08.055Z,8.63
2018-06-10T23:41:37.550Z,8.53
2018-06-10T23:44:06.674Z,9.77
2018-06-10T23:46:36.028Z,8.17
2018-06-10T23:49:05.583Z,8.43
2018-06-10T23:51:35.023Z,8.50
2018-06-10T23:54:04.537Z,8.67
2018-06-10T23:56:34.005Z,9.23
2018-06-10T23:59:03.490Z,8.43
